createdAt,value
2018-08-20T00:01:31.625Z,6.13
2018-08-20T00:04:05.076Z,8.03
2018-08-20T00:06:45.601Z,7.40
2018-08-20T00:09:13.981Z,7.13
2018-08-20T00:11:42.477Z,8.90
2018-08-20T00:14:10.899Z,8.17
2018-08-20T00:16:39.310Z,8.53
2018-08-20T00:19:11.948Z,7.73
2018-08-20T00:21:40.393Z,8.10
2018-08-20T00:24:08.743Z,8.30
2018-08-20T00:26:37.147Z,7.83
2018-08-20T00:29:06.054Z,8.80
2018-08-20T00:31:34.759Z,8.00
2018-08-20T00:34:03.114Z,8.40
2018-08-20T00:36:31.458Z,7.40
2018-08-20T00:38:59.759Z,8.17
2018-08-20T00:41:28.111Z,8.13
2018-08-20T00:43:56.396Z,7.13
2018-08-20T00:46:24.777Z,8.43
2018-08-20T00:48:53.261Z,7.83
2018-08-20T00:51:21.581Z,8.80
2018-08-20T00:53:49.879Z,7.83
2018-08-20T00:56:18.216Z,8.10
2018-08-20T00:58:46.614Z,7.90
2018-08-20T01:01:14.998Z,8.27
2018-08-20T01:03:43.406Z,7.40
2018-08-20T01:06:11.731Z,7.70
2018-08-20T01:08:40.142Z,7.30
2018-08-20T01:11:08.597Z,7.47
2018-08-20T01:13:36.993Z,7.20
2018-08-20T01:16:05.337Z,7.13
2018-08-20T01:18:33.743Z,7.57
2018-08-20T01:21:02.125Z,6.97
2018-08-20T01:23:30.505Z,8.07
2018-08-20T01:25:58.843Z,7.40
2018-08-20T01:28:27.191Z,8.57
2018-08-20T01:30:55.509Z,7.30
2018-08-20T01:33:23.866Z,7.57
2018-08-20T01:35:52.224Z,8.80
2018-08-20T01:38:20.514Z,7.20
2018-08-20T01:40:49.125Z,7.00
2018-08-20T01:43:17.439Z,7.53
2018-08-20T01:45:45.830Z,6.93
2018-08-20T01:48:14.341Z,7.20
2018-08-20T01:50:42.978Z,6.37
2018-08-20T01:53:11.286Z,7.80
2018-08-20T01:55:39.615Z,7.17
2018-08-20T01:58:07.965Z,7.90
2018-08-20T02:00:36.332Z,7.73
2018-08-20T02:03:04.915Z,6.70
2018-08-20T02:05:33.313Z,6.57
2018-08-20T02:08:01.923Z,6.67
2018-08-20T02:10:30.564Z,7.23
2018-08-20T02:12:58.910Z,6.40
2018-08-20T02:15:27.235Z,7.83
2018-08-20T02:17:55.850Z,7.30
2018-08-20T02:20:24.237Z,6.80
2018-08-20T02:22:52.610Z,7.90
2018-08-20T02:25:20.953Z,7.10
2018-08-20T02:27:49.289Z,8.37
2018-08-20T02:30:17.585Z,6.87
2018-08-20T02:32:45.910Z,7.10
2018-08-20T02:35:14.224Z,7.10
2018-08-20T02:37:45.347Z,6.80
2018-08-20T02:40:14.749Z,6.10
2018-08-20T02:42:43.106Z,5.40
2018-08-20T02:45:14.820Z,6.50
2018-08-20T02:47:43.829Z,7.00
2018-08-20T02:50:12.946Z,7.10
2018-08-20T02:52:42.243Z,6.63
2018-08-20T02:55:10.651Z,7.03
2018-08-20T02:57:39.234Z,6.70
2018-08-20T03:00:09.573Z,7.50
2018-08-20T03:02:37.934Z,7.23
2018-08-20T03:05:06.749Z,6.27
2018-08-20T03:07:35.075Z,6.73
2018-08-20T03:10:03.545Z,7.27
2018-08-20T03:12:31.884Z,7.13
2018-08-20T03:15:00.560Z,7.33
2018-08-20T03:17:28.917Z,6.70
2018-08-20T03:19:57.359Z,7.30
2018-08-20T03:22:25.686Z,6.97
2018-08-20T03:24:54.122Z,6.63
2018-08-20T03:27:22.497Z,7.37
2018-08-20T03:29:50.859Z,7.83
2018-08-20T03:32:19.206Z,6.70
2018-08-20T03:34:47.543Z,7.47
2018-08-20T03:37:15.911Z,7.17
2018-08-20T03:39:44.394Z,6.90
2018-08-20T03:42:12.757Z,7.27
2018-08-20T03:44:41.123Z,7.00
2018-08-20T03:47:09.538Z,5.90
2018-08-20T03:49:38.703Z,7.77
2018-08-20T03:52:07.071Z,6.93
2018-08-20T03:54:35.405Z,7.07
2018-08-20T03:57:03.852Z,8.20
2018-08-20T03:59:36.615Z,7.30
2018-08-20T04:02:06.077Z,7.27
2018-08-20T04:04:34.456Z,7.20
2018-08-20T04:07:04.146Z,7.23
2018-08-20T04:09:32.887Z,7.60
2018-08-20T04:12:02.291Z,8.10
2018-08-20T04:14:30.666Z,7.07
2018-08-20T04:16:59.602Z,7.50
2018-08-20T04:19:28.514Z,6.77
2018-08-20T04:21:56.930Z,7.37
2018-08-20T04:24:25.351Z,7.43
2018-08-20T04:26:53.802Z,7.63
2018-08-20T04:29:22.418Z,7.53
2018-08-20T04:31:50.750Z,7.20
2018-08-20T04:34:19.078Z,7.70
2018-08-20T04:36:47.447Z,7.30
2018-08-20T04:39:15.806Z,7.70
2018-08-20T04:41:44.121Z,7.00
2018-08-20T04:44:12.473Z,6.57
2018-08-20T04:46:40.803Z,7.00
2018-08-20T04:49:09.138Z,7.57
2018-08-20T04:51:37.483Z,7.10
2018-08-20T04:54:05.919Z,6.93
2018-08-20T04:56:34.238Z,7.20
2018-08-20T04:59:02.612Z,7.10
2018-08-20T05:01:30.955Z,7.30
2018-08-20T05:03:59.475Z,7.50
2018-08-20T05:06:27.761Z,7.43
2018-08-20T05:08:56.240Z,7.20
2018-08-20T05:11:24.588Z,7.77
2018-08-20T05:13:52.920Z,7.40
2018-08-20T05:16:21.419Z,7.80
2018-08-20T05:18:49.742Z,7.60
2018-08-20T05:21:18.101Z,8.17
2018-08-20T05:23:46.454Z,8.00
2018-08-20T05:26:14.807Z,7.30
2018-08-20T05:28:43.143Z,7.33
2018-08-20T05:31:11.488Z,9.20
2018-08-20T05:33:39.871Z,7.90
2018-08-20T05:36:08.349Z,7.10
2018-08-20T05:38:36.718Z,7.40
2018-08-20T05:41:05.069Z,9.23
2018-08-20T05:43:33.470Z,8.00
2018-08-20T05:46:01.919Z,7.80
2018-08-20T05:48:30.297Z,8.80
2018-08-20T05:50:58.701Z,7.33
2018-08-20T05:53:27.068Z,8.20
2018-08-20T05:55:55.376Z,8.03
2018-08-20T05:58:23.819Z,8.70
2018-08-20T06:00:52.229Z,7.87
2018-08-20T06:03:20.815Z,8.17
2018-08-20T06:05:49.149Z,9.60
2018-08-20T06:08:17.520Z,9.70
2018-08-20T06:10:45.894Z,8.90
2018-08-20T06:13:14.333Z,8.10
2018-08-20T06:15:42.726Z,7.80
2018-08-20T06:18:11.466Z,8.20
2018-08-20T06:20:39.957Z,9.40
2018-08-20T06:23:08.362Z,9.20
2018-08-20T06:25:36.699Z,9.80
2018-08-20T06:28:05.078Z,9.27
2018-08-20T06:30:33.437Z,9.73
2018-08-20T06:33:01.814Z,10.13
2018-08-20T06:35:30.143Z,9.20
2018-08-20T06:37:58.599Z,8.60
2018-08-20T06:40:26.957Z,8.50
2018-08-20T06:42:55.282Z,9.70
2018-08-20T06:45:23.771Z,9.37
2018-08-20T06:47:52.171Z,9.17
2018-08-20T06:50:20.578Z,9.13
2018-08-20T06:52:48.922Z,8.20
2018-08-20T06:55:17.326Z,8.60
2018-08-20T06:57:46.577Z,8.27
2018-08-20T07:00:15.289Z,8.17
2018-08-20T07:02:43.682Z,8.97
2018-08-20T07:05:12.254Z,8.40
2018-08-20T07:07:41.096Z,8.10
2018-08-20T07:10:12.338Z,8.20
2018-08-20T07:12:40.865Z,7.90
2018-08-20T07:15:11.337Z,8.03
2018-08-20T07:17:39.771Z,8.10
2018-08-20T07:20:09.967Z,7.33
2018-08-20T07:22:38.382Z,8.13
2018-08-20T07:25:07.943Z,8.40
2018-08-20T07:27:37.256Z,8.30
2018-08-20T07:30:07.973Z,7.90
2018-08-20T07:32:36.418Z,8.20
2018-08-20T07:35:05.819Z,7.77
2018-08-20T07:37:34.220Z,8.20
2018-08-20T07:40:02.667Z,9.43
2018-08-20T07:42:31.172Z,8.43
2018-08-20T07:44:59.638Z,8.33
2018-08-20T07:47:28.234Z,7.73
2018-08-20T07:49:56.698Z,7.10
2018-08-20T07:52:25.122Z,8.97
2018-08-20T07:54:53.571Z,8.30
2018-08-20T07:57:21.995Z,8.90
2018-08-20T07:59:50.348Z,8.90
2018-08-20T08:02:18.754Z,8.77
2018-08-20T08:04:47.109Z,8.27
2018-08-20T08:07:15.606Z,8.70
2018-08-20T08:09:44.050Z,9.60
2018-08-20T08:12:12.440Z,15.53
2018-08-20T08:14:40.842Z,10.60
2018-08-20T08:17:09.279Z,9.80
2018-08-20T08:19:37.752Z,9.43
2018-08-20T08:22:06.143Z,9.40
2018-08-20T08:24:34.579Z,9.67
2018-08-20T08:27:03.089Z,10.23
2018-08-20T08:29:31.592Z,10.70
2018-08-20T08:32:00.021Z,9.30
2018-08-20T08:34:28.437Z,10.33
2018-08-20T08:36:56.924Z,10.87
2018-08-20T08:39:25.347Z,10.00
2018-08-20T08:41:53.738Z,10.77
2018-08-20T08:44:22.123Z,10.43
2018-08-20T08:46:50.565Z,10.30
2018-08-20T08:49:19.029Z,10.50
2018-08-20T08:51:47.811Z,9.80
2018-08-20T08:54:16.239Z,10.33
2018-08-20T08:56:44.811Z,10.17
2018-08-20T08:59:13.832Z,10.13
2018-08-20T09:01:42.344Z,9.70
2018-08-20T09:04:10.916Z,10.70
2018-08-20T09:06:39.373Z,10.50
2018-08-20T09:09:08.112Z,10.60
2018-08-20T09:11:36.639Z,9.77
2018-08-20T09:14:05.111Z,9.30
2018-08-20T09:16:33.514Z,10.37
2018-08-20T09:19:01.889Z,9.90
2018-08-20T09:21:30.285Z,10.60
2018-08-20T09:23:58.718Z,10.17
2018-08-20T09:26:27.145Z,10.00
2018-08-20T09:28:55.517Z,10.37
2018-08-20T09:31:23.946Z,10.23
2018-08-20T09:33:52.652Z,10.43
2018-08-20T09:36:21.773Z,10.90
2018-08-20T09:38:50.686Z,10.10
2018-08-20T09:41:19.149Z,10.67
2018-08-20T09:43:47.578Z,9.83
2018-08-20T09:46:15.959Z,9.17
2018-08-20T09:48:44.348Z,9.73
2018-08-20T09:51:12.818Z,9.27
2018-08-20T09:53:41.204Z,9.33
2018-08-20T09:56:09.962Z,9.53
2018-08-20T09:58:38.372Z,9.43
2018-08-20T10:01:06.803Z,10.13
2018-08-20T10:03:35.336Z,9.37
2018-08-20T10:06:03.718Z,10.10
2018-08-20T10:08:32.312Z,8.80
2018-08-20T10:11:00.720Z,9.33
2018-08-20T10:13:29.064Z,9.60
2018-08-20T10:15:57.457Z,9.43
2018-08-20T10:18:25.891Z,9.90
2018-08-20T10:20:54.240Z,9.47
2018-08-20T10:23:22.651Z,9.63
2018-08-20T10:25:51.205Z,9.27
2018-08-20T10:28:19.632Z,8.87
2018-08-20T10:30:48.035Z,9.57
2018-08-20T10:33:16.471Z,9.53
2018-08-20T10:35:44.843Z,8.90
2018-08-20T10:38:13.298Z,8.87
2018-08-20T10:40:41.693Z,9.07
2018-08-20T10:43:10.059Z,7.40
2018-08-20T10:45:43.896Z,7.30
2018-08-20T10:48:12.286Z,6.40
2018-08-20T10:50:40.682Z,7.60
2018-08-20T10:53:09.092Z,8.03
2018-08-20T10:55:37.512Z,7.67
2018-08-20T10:58:06.034Z,7.17
2018-08-20T11:00:34.468Z,6.33
2018-08-20T11:03:02.846Z,6.43
2018-08-20T11:05:31.234Z,6.17
2018-08-20T11:07:59.680Z,5.37
2018-08-20T11:10:28.109Z,4.47
2018-08-20T11:12:56.554Z,5.17
2018-08-20T11:15:24.914Z,4.67
2018-08-20T11:17:53.385Z,4.80
2018-08-20T11:20:21.738Z,5.60
2018-08-20T11:22:50.592Z,4.60
2018-08-20T11:25:19.064Z,4.00
2018-08-20T11:27:47.541Z,6.07
2018-08-20T11:30:15.964Z,5.30
2018-08-20T11:32:44.344Z,6.40
2018-08-20T11:35:12.997Z,6.63
2018-08-20T11:37:41.686Z,7.20
2018-08-20T11:40:10.078Z,7.10
2018-08-20T11:42:38.509Z,6.60
2018-08-20T11:45:09.090Z,7.23
2018-08-20T11:47:37.522Z,6.03
2018-08-20T11:50:06.103Z,7.20
2018-08-20T11:52:36.082Z,6.50
2018-08-20T11:55:04.714Z,7.20
2018-08-20T11:57:33.875Z,6.40
2018-08-20T12:00:02.343Z,6.30
2018-08-20T12:02:31.174Z,5.70
2018-08-20T12:04:59.571Z,5.57
2018-08-20T12:07:28.048Z,5.77
2018-08-20T12:09:56.381Z,5.20
2018-08-20T12:12:24.685Z,5.53
2018-08-20T12:14:53.087Z,6.13
2018-08-20T12:17:21.614Z,5.37
2018-08-20T12:19:50.381Z,4.93
2018-08-20T12:22:18.763Z,5.40
2018-08-20T12:24:47.106Z,5.03
2018-08-20T12:27:16.211Z,5.40
2018-08-20T12:29:44.569Z,5.93
2018-08-20T12:32:12.934Z,5.53
2018-08-20T12:34:41.527Z,5.33
2018-08-20T12:37:10.043Z,5.40
2018-08-20T12:39:38.451Z,5.03
2018-08-20T12:42:07.211Z,4.73
2018-08-20T12:44:36.182Z,5.37
2018-08-20T12:47:04.650Z,4.53
2018-08-20T12:49:33.000Z,5.50
2018-08-20T12:52:01.420Z,5.13
2018-08-20T12:54:29.718Z,5.03
2018-08-20T12:56:58.502Z,4.93
2018-08-20T12:59:27.397Z,5.00
2018-08-20T13:01:56.363Z,4.60
2018-08-20T13:04:24.669Z,4.67
2018-08-20T13:06:52.999Z,5.10
2018-08-20T13:09:21.512Z,4.97
2018-08-20T13:11:49.917Z,5.10
2018-08-20T13:14:18.345Z,5.40
2018-08-20T13:16:46.727Z,5.67
2018-08-20T13:19:15.085Z,5.07
2018-08-20T13:21:43.521Z,4.73
2018-08-20T13:24:11.963Z,6.40
2018-08-20T13:26:40.321Z,4.67
2018-08-20T13:29:08.662Z,4.60
2018-08-20T13:31:37.687Z,3.80
2018-08-20T13:34:06.764Z,4.10
2018-08-20T13:36:35.263Z,5.00
2018-08-20T13:39:04.748Z,5.03
2018-08-20T13:41:33.183Z,4.40
2018-08-20T13:44:02.308Z,4.60
2018-08-20T13:46:30.683Z,4.97
2018-08-20T13:48:59.089Z,4.93
2018-08-20T13:51:27.474Z,4.50
2018-08-20T13:53:55.798Z,4.27
2018-08-20T13:56:24.120Z,4.00
2018-08-20T13:58:52.458Z,4.23
2018-08-20T14:01:20.829Z,4.67
2018-08-20T14:03:49.165Z,4.13
2018-08-20T14:06:17.598Z,3.87
2018-08-20T14:08:46.547Z,4.40
2018-08-20T14:11:14.910Z,3.90
2018-08-20T14:13:43.259Z,3.73
2018-08-20T14:16:11.640Z,3.60
2018-08-20T14:18:39.977Z,3.63
2018-08-20T14:21:16.637Z,3.80
2018-08-20T14:23:47.367Z,4.53
2018-08-20T14:26:15.775Z,4.10
2018-08-20T14:28:44.220Z,3.93
2018-08-20T14:31:12.678Z,3.50
2018-08-20T14:33:41.116Z,4.30
2018-08-20T14:36:10.651Z,4.00
2018-08-20T14:38:39.632Z,4.30
2018-08-20T14:41:08.727Z,3.30
2018-08-20T14:43:37.163Z,4.33
2018-08-20T14:46:11.490Z,4.23
2018-08-20T14:48:39.885Z,4.13
2018-08-20T14:51:08.483Z,3.30
2018-08-20T14:53:36.847Z,4.97
2018-08-20T14:56:05.323Z,4.73
2018-08-20T14:58:33.833Z,4.40
2018-08-20T15:01:02.643Z,3.77
2018-08-20T15:03:31.049Z,4.30
2018-08-20T15:05:59.385Z,3.90
2018-08-20T15:08:27.752Z,4.43
2018-08-20T15:10:56.347Z,4.03
2018-08-20T15:13:24.727Z,4.30
2018-08-20T15:15:53.091Z,3.37
2018-08-20T15:18:21.457Z,4.03
2018-08-20T15:20:49.774Z,4.20
2018-08-20T15:23:18.729Z,4.37
2018-08-20T15:25:47.113Z,4.67
2018-08-20T15:28:15.499Z,3.80
2018-08-20T15:30:44.538Z,4.57
2018-08-20T15:33:13.541Z,4.47
2018-08-20T15:35:41.899Z,4.90
2018-08-20T15:38:10.320Z,4.30
2018-08-20T15:40:38.633Z,5.60
2018-08-20T15:43:07.014Z,5.80
2018-08-20T15:45:35.921Z,5.60
2018-08-20T15:48:04.314Z,5.77
2018-08-20T15:50:32.789Z,4.80
2018-08-20T15:53:01.700Z,5.03
2018-08-20T15:55:30.197Z,5.20
2018-08-20T15:57:58.552Z,5.17
2018-08-20T16:00:27.031Z,6.30
2018-08-20T16:02:55.352Z,5.70
2018-08-20T16:05:23.781Z,5.00
2018-08-20T16:07:52.238Z,5.47
2018-08-20T16:10:20.667Z,5.33
2018-08-20T16:12:49.206Z,4.93
2018-08-20T16:15:17.583Z,4.70
2018-08-20T16:17:45.905Z,4.67
2018-08-20T16:20:14.810Z,5.30
2018-08-20T16:22:43.199Z,5.50
2018-08-20T16:25:11.521Z,4.63
2018-08-20T16:27:39.889Z,4.70
2018-08-20T16:30:10.639Z,5.30
2018-08-20T16:32:39.495Z,4.20
2018-08-20T16:35:09.290Z,4.37
2018-08-20T16:37:37.672Z,5.20
2018-08-20T16:40:07.346Z,4.93
2018-08-20T16:42:35.817Z,4.80
2018-08-20T16:45:04.801Z,5.20
2018-08-20T16:47:33.173Z,5.10
2018-08-20T16:50:01.593Z,4.90
2018-08-20T16:52:30.011Z,5.17
2018-08-20T16:54:58.381Z,4.90
2018-08-20T16:57:26.772Z,5.53
2018-08-20T16:59:55.155Z,5.37
2018-08-20T17:02:28.088Z,5.30
2018-08-20T17:04:56.639Z,5.53
2018-08-20T17:07:24.990Z,5.80
2018-08-20T17:09:53.438Z,5.03
2018-08-20T17:12:21.907Z,6.03
2018-08-20T17:14:50.357Z,6.27
2018-08-20T17:17:18.685Z,6.10
2018-08-20T17:19:47.141Z,5.50
2018-08-20T17:22:15.673Z,5.50
2018-08-20T17:24:44.111Z,5.50
2018-08-20T17:27:12.702Z,5.13
2018-08-20T17:29:41.106Z,4.77
2018-08-20T17:32:10.065Z,5.10
2018-08-20T17:34:39.623Z,5.50
2018-08-20T17:37:08.058Z,3.90
2018-08-20T17:39:50.651Z,3.93
2018-08-20T17:42:19.054Z,4.57
2018-08-20T17:44:47.375Z,4.10
2018-08-20T17:47:20.027Z,4.27
2018-08-20T17:49:48.446Z,4.43
2018-08-20T17:52:16.884Z,4.87
2018-08-20T17:54:45.327Z,4.30
2018-08-20T17:57:13.790Z,4.33
2018-08-20T17:59:42.179Z,4.30
2018-08-20T18:02:18.796Z,3.70
2018-08-20T18:04:49.042Z,3.57
2018-08-20T18:07:17.425Z,3.33
2018-08-20T18:09:45.826Z,3.57
2018-08-20T18:12:14.244Z,4.30
2018-08-20T18:14:42.795Z,3.77
2018-08-20T18:17:11.295Z,3.67
2018-08-20T18:19:39.584Z,4.10
2018-08-20T18:22:08.043Z,4.40
2018-08-20T18:24:36.457Z,4.03
2018-08-20T18:27:04.874Z,3.73
2018-08-20T18:29:33.316Z,3.80
2018-08-20T18:32:02.950Z,3.87
2018-08-20T18:34:31.360Z,4.00
2018-08-20T18:37:02.501Z,4.20
2018-08-20T18:39:30.982Z,3.90
2018-08-20T18:42:03.557Z,4.23
2018-08-20T18:44:31.989Z,4.23
2018-08-20T18:47:00.749Z,4.63
2018-08-20T18:49:29.272Z,5.00
2018-08-20T18:52:04.258Z,5.70
2018-08-20T18:54:38.442Z,5.33
2018-08-20T18:57:07.233Z,5.80
2018-08-20T18:59:38.026Z,7.23
2018-08-20T19:02:07.804Z,5.63
2018-08-20T19:04:41.481Z,7.47
2018-08-20T19:07:11.173Z,6.10
2018-08-20T19:09:40.433Z,6.10
2018-08-20T19:12:09.254Z,7.30
2018-08-20T19:14:37.745Z,6.50
2018-08-20T19:17:14.192Z,6.97
2018-08-20T19:19:48.306Z,7.10
2018-08-20T19:22:22.240Z,6.20
2018-08-20T19:24:50.686Z,6.63
2018-08-20T19:27:19.191Z,6.73
2018-08-20T19:29:47.620Z,6.27
2018-08-20T19:32:16.050Z,7.13
2018-08-20T19:34:44.438Z,6.73
2018-08-20T19:37:12.938Z,5.90
2018-08-20T19:39:41.548Z,5.97
2018-08-20T19:42:13.856Z,6.40
2018-08-20T19:44:42.664Z,6.40
2018-08-20T19:47:11.072Z,7.90
2018-08-20T19:49:39.527Z,6.20
2018-08-20T19:52:07.981Z,6.13
2018-08-20T19:54:36.399Z,6.70
2018-08-20T19:57:05.050Z,6.50
2018-08-20T19:59:37.676Z,6.10
2018-08-20T20:02:10.378Z,6.13
2018-08-20T20:04:38.825Z,6.50
2018-08-20T20:07:07.423Z,5.50
2018-08-20T20:09:36.516Z,5.83
2018-08-20T20:12:05.173Z,5.70
2018-08-20T20:14:38.859Z,5.47
2018-08-20T20:17:07.267Z,6.17
2018-08-20T20:19:35.734Z,6.10
2018-08-20T20:22:04.157Z,6.10
2018-08-20T20:24:32.566Z,6.70
2018-08-20T20:27:00.957Z,6.17
2018-08-20T20:29:29.350Z,5.73
2018-08-20T20:31:57.712Z,6.20
2018-08-20T20:34:26.071Z,5.73
2018-08-20T20:36:54.483Z,6.00
2018-08-20T20:39:22.930Z,5.53
2018-08-20T20:41:51.303Z,6.70
2018-08-20T20:44:20.229Z,5.80
2018-08-20T20:46:48.611Z,6.47
2018-08-20T20:49:16.976Z,5.93
2018-08-20T20:51:45.487Z,6.60
2018-08-20T20:54:13.873Z,5.70
2018-08-20T20:56:42.339Z,7.00
2018-08-20T20:59:10.776Z,6.00
2018-08-20T21:01:39.209Z,7.27
2018-08-20T21:04:08.676Z,6.90
2018-08-20T21:06:39.980Z,6.00
2018-08-20T21:09:12.373Z,6.77
2018-08-20T21:11:41.262Z,6.17
2018-08-20T21:14:09.730Z,6.63
2018-08-20T21:16:38.156Z,5.50
2018-08-20T21:19:07.842Z,5.23
2018-08-20T21:21:36.306Z,5.20
2018-08-20T21:24:06.249Z,5.57
2018-08-20T21:26:34.763Z,4.93
2018-08-20T21:29:03.174Z,5.00
2018-08-20T21:31:37.101Z,5.00
2018-08-20T21:34:05.469Z,4.83
2018-08-20T21:36:33.818Z,5.20
2018-08-20T21:39:02.749Z,5.57
2018-08-20T21:41:31.090Z,5.60
2018-08-20T21:43:59.434Z,6.13
2018-08-20T21:46:27.826Z,5.10
2018-08-20T21:48:56.234Z,6.10
2018-08-20T21:51:30.131Z,5.50
2018-08-20T21:53:58.858Z,5.93
2018-08-20T21:56:38.605Z,6.20
2018-08-20T21:59:07.129Z,6.00
2018-08-20T22:01:35.510Z,6.50
2018-08-20T22:04:08.120Z,5.73
2018-08-20T22:06:37.104Z,5.43
2018-08-20T22:09:06.377Z,5.57
2018-08-20T22:11:35.303Z,6.37
2018-08-20T22:14:03.734Z,6.33
2018-08-20T22:16:32.194Z,5.47
2018-08-20T22:19:00.622Z,5.80
2018-08-20T22:21:28.958Z,5.80
2018-08-20T22:23:58.238Z,5.73
2018-08-20T22:26:26.814Z,6.70
2018-08-20T22:28:55.276Z,6.60
2018-08-20T22:31:24.223Z,5.83
2018-08-20T22:33:58.724Z,6.60
2018-08-20T22:36:28.326Z,6.50
2018-08-20T22:38:59.408Z,6.77
2018-08-20T22:41:29.690Z,6.57
2018-08-20T22:43:58.063Z,6.33
2018-08-20T22:46:26.747Z,6.67
2018-08-20T22:48:57.855Z,6.53
2018-08-20T22:51:27.476Z,6.30
2018-08-20T22:54:00.627Z,7.20
2018-08-20T22:56:33.841Z,7.07
2018-08-20T22:59:06.061Z,7.43
2018-08-20T23:01:34.523Z,7.70
2018-08-20T23:04:02.944Z,7.40
2018-08-20T23:06:31.423Z,7.77
2018-08-20T23:09:04.256Z,7.30
2018-08-20T23:11:41.164Z,7.60
2018-08-20T23:14:11.148Z,8.30
2018-08-20T23:16:39.789Z,8.80
2018-08-20T23:19:08.841Z,8.63
2018-08-20T23:21:40.861Z,8.07
2018-08-20T23:24:09.841Z,7.60
2018-08-20T23:26:38.202Z,8.20
2018-08-20T23:29:06.610Z,8.80
2018-08-20T23:31:34.989Z,8.77
2018-08-20T23:34:03.418Z,9.43
2018-08-20T23:39:08.760Z,9.40
2018-08-20T23:41:37.253Z,8.77
2018-08-20T23:44:05.725Z,9.63
2018-08-20T23:46:38.503Z,9.03
2018-08-20T23:49:06.889Z,8.27
2018-08-20T23:51:35.344Z,8.00
2018-08-20T23:54:03.754Z,8.13
2018-08-20T23:56:32.198Z,7.73
2018-08-20T23:59:00.694Z,7.40
